sensor_id;sensor_type;location;lat;lon;timestamp;P1;durP1;ratioP1;P2;durP2;ratioP2
12896;SDS011;6516;35.028;32.372;2023-02-28T00:01:10;27.03;;;18.57;;
12896;SDS011;6516;35.028;32.372;2023-02-28T00:03:40;31.25;;;19.02;;
12896;SDS011;6516;35.028;32.372;2023-02-28T00:06:08;26.73;;;17.48;;
12896;SDS011;6516;35.028;32.372;2023-02-28T00:08:36;30.15;;;17.27;;
12896;SDS011;6516;35.028;32.372;2023-02-28T00:11:05;29.52;;;18.58;;
12896;SDS011;6516;35.028;32.372;2023-02-28T00:13:36;29.47;;;19.37;;
12896;SDS011;6516;35.028;32.372;2023-02-28T00:16:09;27.10;;;18.75;;
12896;SDS011;6516;35.028;32.372;2023-02-28T00:18:40;30.08;;;20.45;;
12896;SDS011;6516;35.028;32.372;2023-02-28T00:21:08;26.92;;;18.60;;
12896;SDS011;6516;35.028;32.372;2023-02-28T00:23:36;29.05;;;19.73;;
12896;SDS011;6516;35.028;32.372;2023-02-28T00:26:04;27.93;;;17.87;;
12896;SDS011;6516;35.028;32.372;2023-02-28T00:28:32;28.65;;;19.33;;
12896;SDS011;6516;35.028;32.372;2023-02-28T00:31:00;27.98;;;18.58;;
12896;SDS011;6516;35.028;32.372;2023-02-28T00:33:29;29.65;;;19.27;;
12896;SDS011;6516;35.028;32.372;2023-02-28T00:36:04;25.10;;;17.58;;
12896;SDS011;6516;35.028;32.372;2023-02-28T00:38:33;26.83;;;17.57;;
12896;SDS011;6516;35.028;32.372;2023-02-28T00:41:01;28.58;;;17.27;;
12896;SDS011;6516;35.028;32.372;2023-02-28T00:43:30;25.77;;;16.75;;
12896;SDS011;6516;35.028;32.372;2023-02-28T00:45:59;24.73;;;17.38;;
12896;SDS011;6516;35.028;32.372;2023-02-28T00:48:29;27.92;;;18.58;;
12896;SDS011;6516;35.028;32.372;2023-02-28T00:50:57;30.63;;;18.17;;
12896;SDS011;6516;35.028;32.372;2023-02-28T00:53:25;25.90;;;17.27;;
12896;SDS011;6516;35.028;32.372;2023-02-28T00:55:53;25.55;;;18.05;;
12896;SDS011;6516;35.028;32.372;2023-02-28T00:58:21;28.35;;;16.90;;
12896;SDS011;6516;35.028;32.372;2023-02-28T01:00:48;26.70;;;16.95;;
12896;SDS011;6516;35.028;32.372;2023-02-28T01:03:19;28.40;;;17.40;;
12896;SDS011;6516;35.028;32.372;2023-02-28T01:05:49;27.10;;;16.27;;
12896;SDS011;6516;35.028;32.372;2023-02-28T01:08:18;24.80;;;15.32;;
12896;SDS011;6516;35.028;32.372;2023-02-28T01:10:46;27.02;;;16.38;;
12896;SDS011;6516;35.028;32.372;2023-02-28T01:13:14;25.58;;;17.40;;
12896;SDS011;6516;35.028;32.372;2023-02-28T01:15:46;23.07;;;16.77;;
12896;SDS011;6516;35.028;32.372;2023-02-28T01:18:17;25.25;;;16.10;;
12896;SDS011;6516;35.028;32.372;2023-02-28T01:20:45;23.20;;;15.55;;
12896;SDS011;6516;35.028;32.372;2023-02-28T01:23:15;25.25;;;15.70;;
12896;SDS011;6516;35.028;32.372;2023-02-28T01:25:42;26.48;;;16.60;;
12896;SDS011;6516;35.028;32.372;2023-02-28T01:28:10;24.07;;;15.43;;
12896;SDS011;6516;35.028;32.372;2023-02-28T01:30:38;26.10;;;16.05;;
12896;SDS011;6516;35.028;32.372;2023-02-28T01:33:06;25.73;;;15.65;;
12896;SDS011;6516;35.028;32.372;2023-02-28T01:35:33;26.98;;;15.73;;
12896;SDS011;6516;35.028;32.372;2023-02-28T01:38:02;23.25;;;15.40;;
12896;SDS011;6516;35.028;32.372;2023-02-28T01:40:31;24.43;;;16.27;;
12896;SDS011;6516;35.028;32.372;2023-02-28T01:42:59;22.40;;;15.48;;
12896;SDS011;6516;35.028;32.372;2023-02-28T01:45:27;23.92;;;15.63;;
12896;SDS011;6516;35.028;32.372;2023-02-28T01:47:58;24.80;;;16.17;;
12896;SDS011;6516;35.028;32.372;2023-02-28T01:50:33;23.90;;;15.27;;
12896;SDS011;6516;35.028;32.372;2023-02-28T01:53:05;24.40;;;15.50;;
12896;SDS011;6516;35.028;32.372;2023-02-28T01:55:40;22.23;;;14.95;;
12896;SDS011;6516;35.028;32.372;2023-02-28T01:58:13;24.60;;;15.02;;
12896;SDS011;6516;35.028;32.372;2023-02-28T02:00:42;21.67;;;15.20;;
12896;SDS011;6516;35.028;32.372;2023-02-28T02:03:12;26.30;;;16.08;;
12896;SDS011;6516;35.028;32.372;2023-02-28T02:05:44;28.83;;;15.67;;
12896;SDS011;6516;35.028;32.372;2023-02-28T02:08:13;26.45;;;15.60;;
12896;SDS011;6516;35.028;32.372;2023-02-28T02:10:46;25.38;;;15.45;;
12896;SDS011;6516;35.028;32.372;2023-02-28T02:13:21;24.05;;;15.48;;
12896;SDS011;6516;35.028;32.372;2023-02-28T02:16:10;27.90;;;15.27;;
12896;SDS011;6516;35.028;32.372;2023-02-28T02:18:51;23.53;;;14.50;;
12896;SDS011;6516;35.028;32.372;2023-02-28T02:24:45;22.40;;;14.27;;
12896;SDS011;6516;35.028;32.372;2023-02-28T02:28:07;22.60;;;13.35;;
12896;SDS011;6516;35.028;32.372;2023-02-28T02:31:09;23.45;;;13.90;;
12896;SDS011;6516;35.028;32.372;2023-02-28T02:34:24;22.53;;;13.60;;
12896;SDS011;6516;35.028;32.372;2023-02-28T02:37:08;24.27;;;13.10;;
12896;SDS011;6516;35.028;32.372;2023-02-28T02:39:48;20.30;;;13.43;;
12896;SDS011;6516;35.028;32.372;2023-02-28T02:42:23;22.65;;;13.85;;
12896;SDS011;6516;35.028;32.372;2023-02-28T02:44:57;20.27;;;14.13;;
12896;SDS011;6516;35.028;32.372;2023-02-28T02:47:30;22.13;;;12.93;;
12896;SDS011;6516;35.028;32.372;2023-02-28T02:50:02;21.45;;;13.25;;
12896;SDS011;6516;35.028;32.372;2023-02-28T02:52:36;22.35;;;13.02;;
12896;SDS011;6516;35.028;32.372;2023-02-28T02:55:09;26.13;;;13.50;;
12896;SDS011;6516;35.028;32.372;2023-02-28T02:57:40;23.15;;;11.80;;
12896;SDS011;6516;35.028;32.372;2023-02-28T03:00:15;22.23;;;11.87;;
12896;SDS011;6516;35.028;32.372;2023-02-28T03:02:46;18.85;;;11.50;;
12896;SDS011;6516;35.028;32.372;2023-02-28T03:05:19;17.25;;;11.35;;
12896;SDS011;6516;35.028;32.372;2023-02-28T03:07:50;20.10;;;11.80;;
12896;SDS011;6516;35.028;32.372;2023-02-28T03:10:31;23.75;;;12.32;;
12896;SDS011;6516;35.028;32.372;2023-02-28T03:13:07;22.57;;;11.40;;
12896;SDS011;6516;35.028;32.372;2023-02-28T03:15:58;24.35;;;11.85;;
12896;SDS011;6516;35.028;32.372;2023-02-28T03:18:50;22.88;;;12.05;;
12896;SDS011;6516;35.028;32.372;2023-02-28T03:21:38;20.08;;;11.93;;
12896;SDS011;6516;35.028;32.372;2023-02-28T03:24:13;21.13;;;11.82;;
12896;SDS011;6516;35.028;32.372;2023-02-28T03:26:48;20.60;;;11.97;;
12896;SDS011;6516;35.028;32.372;2023-02-28T03:29:22;22.95;;;11.88;;
12896;SDS011;6516;35.028;32.372;2023-02-28T03:31:58;21.77;;;11.93;;
12896;SDS011;6516;35.028;32.372;2023-02-28T03:34:33;22.50;;;11.55;;
12896;SDS011;6516;35.028;32.372;2023-02-28T03:37:05;23.77;;;12.52;;
12896;SDS011;6516;35.028;32.372;2023-02-28T03:39:39;21.77;;;11.93;;
12896;SDS011;6516;35.028;32.372;2023-02-28T03:42:12;19.98;;;11.88;;
12896;SDS011;6516;35.028;32.372;2023-02-28T03:44:42;20.40;;;12.25;;
12896;SDS011;6516;35.028;32.372;2023-02-28T03:47:16;21.25;;;11.43;;
12896;SDS011;6516;35.028;32.372;2023-02-28T03:49:49;20.75;;;11.27;;
12896;SDS011;6516;35.028;32.372;2023-02-28T03:52:25;22.17;;;11.47;;
12896;SDS011;6516;35.028;32.372;2023-02-28T03:54:59;23.88;;;11.57;;
12896;SDS011;6516;35.028;32.372;2023-02-28T03:57:33;23.45;;;11.15;;
12896;SDS011;6516;35.028;32.372;2023-02-28T04:00:06;19.58;;;10.55;;
12896;SDS011;6516;35.028;32.372;2023-02-28T04:02:41;19.88;;;10.75;;
12896;SDS011;6516;35.028;32.372;2023-02-28T04:05:09;21.43;;;10.13;;
12896;SDS011;6516;35.028;32.372;2023-02-28T04:07:38;18.73;;;10.80;;
12896;SDS011;6516;35.028;32.372;2023-02-28T04:10:08;19.50;;;10.55;;
12896;SDS011;6516;35.028;32.372;2023-02-28T04:12:38;18.27;;;9.75;;
12896;SDS011;6516;35.028;32.372;2023-02-28T04:15:07;18.48;;;9.45;;
12896;SDS011;6516;35.028;32.372;2023-02-28T04:17:35;20.60;;;9.77;;
12896;SDS011;6516;35.028;32.372;2023-02-28T04:20:03;19.48;;;9.30;;
12896;SDS011;6516;35.028;32.372;2023-02-28T04:22:35;20.48;;;10.10;;
12896;SDS011;6516;35.028;32.372;2023-02-28T04:25:05;19.70;;;8.95;;
12896;SDS011;6516;35.028;32.372;2023-02-28T04:27:34;18.98;;;8.95;;
12896;SDS011;6516;35.028;32.372;2023-02-28T04:30:02;17.73;;;8.87;;
12896;SDS011;6516;35.028;32.372;2023-02-28T04:32:31;17.30;;;9.50;;
12896;SDS011;6516;35.028;32.372;2023-02-28T04:34:59;17.25;;;9.50;;
12896;SDS011;6516;35.028;32.372;2023-02-28T04:37:26;19.58;;;8.77;;
12896;SDS011;6516;35.028;32.372;2023-02-28T04:39:54;20.50;;;9.27;;
12896;SDS011;6516;35.028;32.372;2023-02-28T04:42:26;19.10;;;9.20;;
12896;SDS011;6516;35.028;32.372;2023-02-28T04:45:00;18.60;;;8.90;;
12896;SDS011;6516;35.028;32.372;2023-02-28T04:47:28;19.88;;;9.23;;
12896;SDS011;6516;35.028;32.372;2023-02-28T04:49:56;22.02;;;9.30;;
12896;SDS011;6516;35.028;32.372;2023-02-28T04:52:24;22.23;;;10.00;;
12896;SDS011;6516;35.028;32.372;2023-02-28T04:54:51;25.67;;;10.27;;
12896;SDS011;6516;35.028;32.372;2023-02-28T04:57:19;22.52;;;10.43;;
12896;SDS011;6516;35.028;32.372;2023-02-28T04:59:48;17.83;;;10.35;;
12896;SDS011;6516;35.028;32.372;2023-02-28T05:02:16;24.75;;;10.27;;
12896;SDS011;6516;35.028;32.372;2023-02-28T05:04:43;22.65;;;10.18;;
12896;SDS011;6516;35.028;32.372;2023-02-28T05:07:11;24.87;;;10.63;;
12896;SDS011;6516;35.028;32.372;2023-02-28T05:09:39;26.75;;;10.88;;
12896;SDS011;6516;35.028;32.372;2023-02-28T05:12:07;29.23;;;11.55;;
12896;SDS011;6516;35.028;32.372;2023-02-28T05:14:36;20.38;;;10.15;;
12896;SDS011;6516;35.028;32.372;2023-02-28T05:17:05;19.40;;;10.05;;
12896;SDS011;6516;35.028;32.372;2023-02-28T05:19:33;22.87;;;10.67;;
12896;SDS011;6516;35.028;32.372;2023-02-28T05:22:00;20.45;;;11.15;;
12896;SDS011;6516;35.028;32.372;2023-02-28T05:24:29;25.30;;;10.90;;
12896;SDS011;6516;35.028;32.372;2023-02-28T05:26:56;21.60;;;10.50;;
12896;SDS011;6516;35.028;32.372;2023-02-28T05:29:24;21.30;;;11.10;;
12896;SDS011;6516;35.028;32.372;2023-02-28T05:31:52;23.20;;;11.33;;
12896;SDS011;6516;35.028;32.372;2023-02-28T05:34:21;20.70;;;10.40;;
12896;SDS011;6516;35.028;32.372;2023-02-28T05:36:49;23.73;;;10.48;;
12896;SDS011;6516;35.028;32.372;2023-02-28T05:39:16;18.80;;;9.75;;
12896;SDS011;6516;35.028;32.372;2023-02-28T05:41:44;21.17;;;10.73;;
12896;SDS011;6516;35.028;32.372;2023-02-28T05:44:12;20.20;;;11.07;;
12896;SDS011;6516;35.028;32.372;2023-02-28T05:46:40;18.25;;;10.55;;
12896;SDS011;6516;35.028;32.372;2023-02-28T05:49:07;19.80;;;10.80;;
12896;SDS011;6516;35.028;32.372;2023-02-28T05:51:36;17.60;;;10.18;;
12896;SDS011;6516;35.028;32.372;2023-02-28T05:54:05;20.92;;;10.77;;
12896;SDS011;6516;35.028;32.372;2023-02-28T05:56:33;26.33;;;11.60;;
12896;SDS011;6516;35.028;32.372;2023-02-28T05:59:03;24.23;;;11.18;;
12896;SDS011;6516;35.028;32.372;2023-02-28T06:01:32;19.90;;;10.40;;
12896;SDS011;6516;35.028;32.372;2023-02-28T06:04:02;22.58;;;10.63;;
12896;SDS011;6516;35.028;32.372;2023-02-28T06:06:32;15.23;;;10.45;;
12896;SDS011;6516;35.028;32.372;2023-02-28T06:09:02;14.97;;;9.30;;
12896;SDS011;6516;35.028;32.372;2023-02-28T06:11:31;16.98;;;9.60;;
12896;SDS011;6516;35.028;32.372;2023-02-28T06:13:59;16.48;;;9.60;;
12896;SDS011;6516;35.028;32.372;2023-02-28T06:16:28;21.42;;;12.27;;
12896;SDS011;6516;35.028;32.372;2023-02-28T06:18:58;18.35;;;11.32;;
12896;SDS011;6516;35.028;32.372;2023-02-28T06:21:27;21.03;;;10.70;;
12896;SDS011;6516;35.028;32.372;2023-02-28T06:23:56;21.70;;;11.30;;
12896;SDS011;6516;35.028;32.372;2023-02-28T06:26:26;25.80;;;11.48;;
12896;SDS011;6516;35.028;32.372;2023-02-28T06:28:54;17.38;;;10.40;;
12896;SDS011;6516;35.028;32.372;2023-02-28T06:31:22;17.42;;;11.18;;
12896;SDS011;6516;35.028;32.372;2023-02-28T06:33:51;18.13;;;10.43;;
12896;SDS011;6516;35.028;32.372;2023-02-28T06:36:18;19.67;;;11.10;;
12896;SDS011;6516;35.028;32.372;2023-02-28T06:38:46;20.70;;;11.25;;
12896;SDS011;6516;35.028;32.372;2023-02-28T06:41:20;17.73;;;10.70;;
12896;SDS011;6516;35.028;32.372;2023-02-28T06:43:50;17.58;;;10.57;;
12896;SDS011;6516;35.028;32.372;2023-02-28T06:46:18;15.00;;;10.33;;
12896;SDS011;6516;35.028;32.372;2023-02-28T06:48:46;18.98;;;10.40;;
12896;SDS011;6516;35.028;32.372;2023-02-28T06:51:15;17.92;;;10.75;;
12896;SDS011;6516;35.028;32.372;2023-02-28T06:53:47;19.38;;;10.73;;
12896;SDS011;6516;35.028;32.372;2023-02-28T06:56:15;19.70;;;10.63;;
12896;SDS011;6516;35.028;32.372;2023-02-28T06:58:46;22.23;;;11.30;;
12896;SDS011;6516;35.028;32.372;2023-02-28T07:01:16;20.23;;;10.93;;
12896;SDS011;6516;35.028;32.372;2023-02-28T07:03:44;22.00;;;12.25;;
12896;SDS011;6516;35.028;32.372;2023-02-28T07:06:17;18.85;;;10.60;;
12896;SDS011;6516;35.028;32.372;2023-02-28T07:08:45;18.92;;;11.15;;
12896;SDS011;6516;35.028;32.372;2023-02-28T07:11:13;15.27;;;10.40;;
12896;SDS011;6516;35.028;32.372;2023-02-28T07:13:40;20.10;;;10.82;;
12896;SDS011;6516;35.028;32.372;2023-02-28T07:16:09;18.20;;;11.15;;
12896;SDS011;6516;35.028;32.372;2023-02-28T07:18:39;21.35;;;11.85;;
12896;SDS011;6516;35.028;32.372;2023-02-28T07:21:08;20.38;;;11.27;;
12896;SDS011;6516;35.028;32.372;2023-02-28T07:23:39;21.73;;;11.27;;
12896;SDS011;6516;35.028;32.372;2023-02-28T07:26:07;20.75;;;11.73;;
12896;SDS011;6516;35.028;32.372;2023-02-28T07:28:40;19.50;;;11.27;;
12896;SDS011;6516;35.028;32.372;2023-02-28T07:31:09;23.17;;;11.35;;
12896;SDS011;6516;35.028;32.372;2023-02-28T07:33:40;20.45;;;11.90;;
12896;SDS011;6516;35.028;32.372;2023-02-28T07:36:10;19.27;;;11.07;;
12896;SDS011;6516;35.028;32.372;2023-02-28T07:38:41;16.60;;;11.02;;
12896;SDS011;6516;35.028;32.372;2023-02-28T07:41:09;18.80;;;11.30;;
12896;SDS011;6516;35.028;32.372;2023-02-28T07:43:37;16.65;;;11.38;;
12896;SDS011;6516;35.028;32.372;2023-02-28T07:46:06;19.52;;;11.32;;
12896;SDS011;6516;35.028;32.372;2023-02-28T07:48:36;17.03;;;11.20;;
12896;SDS011;6516;35.028;32.372;2023-02-28T07:51:05;16.90;;;11.70;;
12896;SDS011;6516;35.028;32.372;2023-02-28T07:53:33;20.67;;;11.65;;
12896;SDS011;6516;35.028;32.372;2023-02-28T07:56:01;23.27;;;11.43;;
12896;SDS011;6516;35.028;32.372;2023-02-28T07:58:30;20.13;;;11.40;;
12896;SDS011;6516;35.028;32.372;2023-02-28T08:01:04;17.30;;;10.57;;
12896;SDS011;6516;35.028;32.372;2023-02-28T08:03:33;18.00;;;11.40;;
12896;SDS011;6516;35.028;32.372;2023-02-28T08:06:01;18.77;;;11.23;;
12896;SDS011;6516;35.028;32.372;2023-02-28T08:08:31;22.90;;;11.75;;
12896;SDS011;6516;35.028;32.372;2023-02-28T08:10:59;19.50;;;11.43;;
12896;SDS011;6516;35.028;32.372;2023-02-28T08:13:28;20.23;;;11.63;;
12896;SDS011;6516;35.028;32.372;2023-02-28T08:15:56;20.42;;;11.20;;
12896;SDS011;6516;35.028;32.372;2023-02-28T08:18:24;18.48;;;10.85;;
12896;SDS011;6516;35.028;32.372;2023-02-28T08:20:52;22.17;;;11.88;;
12896;SDS011;6516;35.028;32.372;2023-02-28T08:23:20;15.68;;;11.13;;
12896;SDS011;6516;35.028;32.372;2023-02-28T08:25:54;22.83;;;11.90;;
12896;SDS011;6516;35.028;32.372;2023-02-28T08:28:22;21.40;;;12.25;;
12896;SDS011;6516;35.028;32.372;2023-02-28T08:30:50;20.20;;;11.90;;
12896;SDS011;6516;35.028;32.372;2023-02-28T08:33:18;20.27;;;12.50;;
12896;SDS011;6516;35.028;32.372;2023-02-28T08:35:46;21.70;;;12.48;;
12896;SDS011;6516;35.028;32.372;2023-02-28T08:38:14;18.70;;;11.57;;
12896;SDS011;6516;35.028;32.372;2023-02-28T08:40:42;19.23;;;12.10;;
12896;SDS011;6516;35.028;32.372;2023-02-28T08:43:11;19.60;;;12.32;;
12896;SDS011;6516;35.028;32.372;2023-02-28T08:45:39;22.90;;;12.55;;
12896;SDS011;6516;35.028;32.372;2023-02-28T08:48:06;23.33;;;12.77;;
12896;SDS011;6516;35.028;32.372;2023-02-28T08:50:34;23.63;;;12.70;;
12896;SDS011;6516;35.028;32.372;2023-02-28T08:53:02;24.38;;;12.10;;
12896;SDS011;6516;35.028;32.372;2023-02-28T08:55:29;20.63;;;12.20;;
12896;SDS011;6516;35.028;32.372;2023-02-28T08:57:57;21.13;;;12.73;;
12896;SDS011;6516;35.028;32.372;2023-02-28T09:00:28;25.25;;;13.32;;
12896;SDS011;6516;35.028;32.372;2023-02-28T09:02:55;22.97;;;12.47;;
12896;SDS011;6516;35.028;32.372;2023-02-28T09:05:23;22.38;;;13.45;;
12896;SDS011;6516;35.028;32.372;2023-02-28T09:07:51;24.63;;;14.00;;
12896;SDS011;6516;35.028;32.372;2023-02-28T09:10:18;21.85;;;13.38;;
12896;SDS011;6516;35.028;32.372;2023-02-28T09:12:46;18.15;;;13.10;;
12896;SDS011;6516;35.028;32.372;2023-02-28T09:15:14;20.63;;;13.37;;
12896;SDS011;6516;35.028;32.372;2023-02-28T09:17:43;20.00;;;13.70;;
12896;SDS011;6516;35.028;32.372;2023-02-28T09:20:11;23.48;;;13.10;;
12896;SDS011;6516;35.028;32.372;2023-02-28T09:22:39;27.73;;;15.35;;
12896;SDS011;6516;35.028;32.372;2023-02-28T09:25:07;23.35;;;14.48;;
12896;SDS011;6516;35.028;32.372;2023-02-28T09:27:35;20.83;;;14.00;;
12896;SDS011;6516;35.028;32.372;2023-02-28T09:30:03;22.60;;;14.02;;
12896;SDS011;6516;35.028;32.372;2023-02-28T09:32:31;22.38;;;14.85;;
12896;SDS011;6516;35.028;32.372;2023-02-28T09:35:00;22.00;;;13.43;;
12896;SDS011;6516;35.028;32.372;2023-02-28T09:37:28;19.17;;;12.57;;
12896;SDS011;6516;35.028;32.372;2023-02-28T09:39:56;24.97;;;13.53;;
12896;SDS011;6516;35.028;32.372;2023-02-28T09:42:28;23.00;;;13.75;;
12896;SDS011;6516;35.028;32.372;2023-02-28T09:45:00;23.50;;;13.75;;
12896;SDS011;6516;35.028;32.372;2023-02-28T09:47:48;20.02;;;14.35;;
12896;SDS011;6516;35.028;32.372;2023-02-28T09:50:22;22.70;;;14.45;;
12896;SDS011;6516;35.028;32.372;2023-02-28T09:52:58;26.13;;;14.83;;
12896;SDS011;6516;35.028;32.372;2023-02-28T09:55:30;22.13;;;14.15;;
12896;SDS011;6516;35.028;32.372;2023-02-28T09:58:05;24.00;;;13.80;;
12896;SDS011;6516;35.028;32.372;2023-02-28T10:00:46;25.70;;;14.13;;
12896;SDS011;6516;35.028;32.372;2023-02-28T10:03:25;26.67;;;15.00;;
12896;SDS011;6516;35.028;32.372;2023-02-28T10:06:02;24.43;;;14.53;;
12896;SDS011;6516;35.028;32.372;2023-02-28T10:08:41;25.75;;;14.75;;
12896;SDS011;6516;35.028;32.372;2023-02-28T10:11:19;22.35;;;14.32;;
12896;SDS011;6516;35.028;32.372;2023-02-28T10:13:50;22.80;;;13.85;;
12896;SDS011;6516;35.028;32.372;2023-02-28T10:16:27;23.38;;;14.27;;
12896;SDS011;6516;35.028;32.372;2023-02-28T10:19:02;20.83;;;14.93;;
12896;SDS011;6516;35.028;32.372;2023-02-28T10:21:35;22.45;;;14.65;;
12896;SDS011;6516;35.028;32.372;2023-02-28T10:24:13;27.85;;;15.40;;
12896;SDS011;6516;35.028;32.372;2023-02-28T10:26:49;20.85;;;14.45;;
12896;SDS011;6516;35.028;32.372;2023-02-28T10:29:23;26.52;;;15.27;;
12896;SDS011;6516;35.028;32.372;2023-02-28T10:31:51;21.43;;;15.40;;
12896;SDS011;6516;35.028;32.372;2023-02-28T10:34:19;23.48;;;14.70;;
12896;SDS011;6516;35.028;32.372;2023-02-28T10:36:48;25.83;;;15.35;;
12896;SDS011;6516;35.028;32.372;2023-02-28T10:42:05;22.40;;;14.20;;
12896;SDS011;6516;35.028;32.372;2023-02-28T10:44:59;22.57;;;14.87;;
12896;SDS011;6516;35.028;32.372;2023-02-28T10:47:38;26.52;;;15.73;;
12896;SDS011;6516;35.028;32.372;2023-02-28T10:53:30;22.48;;;15.05;;
12896;SDS011;6516;35.028;32.372;2023-02-28T10:56:02;24.52;;;15.43;;
12896;SDS011;6516;35.028;32.372;2023-02-28T10:58:42;23.03;;;15.23;;
12896;SDS011;6516;35.028;32.372;2023-02-28T11:01:16;24.02;;;15.25;;
12896;SDS011;6516;35.028;32.372;2023-02-28T11:03:46;26.08;;;15.35;;
12896;SDS011;6516;35.028;32.372;2023-02-28T11:06:16;24.17;;;14.60;;
12896;SDS011;6516;35.028;32.372;2023-02-28T11:08:49;23.58;;;15.63;;
12896;SDS011;6516;35.028;32.372;2023-02-28T11:11:19;22.23;;;15.67;;
12896;SDS011;6516;35.028;32.372;2023-02-28T11:13:51;23.10;;;15.27;;
12896;SDS011;6516;35.028;32.372;2023-02-28T11:16:29;24.88;;;16.85;;
12896;SDS011;6516;35.028;32.372;2023-02-28T11:19:00;25.23;;;17.05;;
12896;SDS011;6516;35.028;32.372;2023-02-28T11:21:31;29.73;;;18.65;;
12896;SDS011;6516;35.028;32.372;2023-02-28T11:24:04;30.13;;;19.50;;
12896;SDS011;6516;35.028;32.372;2023-02-28T11:26:47;29.10;;;21.02;;
12896;SDS011;6516;35.028;32.372;2023-02-28T11:29:19;28.38;;;19.45;;
12896;SDS011;6516;35.028;32.372;2023-02-28T11:32:03;29.27;;;21.00;;
12896;SDS011;6516;35.028;32.372;2023-02-28T11:34:39;27.35;;;20.25;;
12896;SDS011;6516;35.028;32.372;2023-02-28T11:37:10;30.33;;;21.57;;
12896;SDS011;6516;35.028;32.372;2023-02-28T11:39:42;28.42;;;21.83;;
12896;SDS011;6516;35.028;32.372;2023-02-28T11:42:15;32.00;;;20.70;;
12896;SDS011;6516;35.028;32.372;2023-02-28T11:45:12;30.58;;;21.05;;
12896;SDS011;6516;35.028;32.372;2023-02-28T11:47:53;33.22;;;21.83;;
12896;SDS011;6516;35.028;32.372;2023-02-28T11:50:38;30.60;;;21.50;;
12896;SDS011;6516;35.028;32.372;2023-02-28T11:53:16;30.50;;;21.90;;
12896;SDS011;6516;35.028;32.372;2023-02-28T11:55:53;33.40;;;22.23;;
12896;SDS011;6516;35.028;32.372;2023-02-28T11:58:38;30.42;;;21.77;;
12896;SDS011;6516;35.028;32.372;2023-02-28T12:01:22;31.70;;;22.42;;
12896;SDS011;6516;35.028;32.372;2023-02-28T12:04:10;32.83;;;21.70;;
12896;SDS011;6516;35.028;32.372;2023-02-28T12:06:54;27.80;;;21.80;;
12896;SDS011;6516;35.028;32.372;2023-02-28T12:09:38;32.85;;;23.83;;
12896;SDS011;6516;35.028;32.372;2023-02-28T12:12:23;32.83;;;22.90;;
12896;SDS011;6516;35.028;32.372;2023-02-28T12:15:17;34.63;;;24.60;;
12896;SDS011;6516;35.028;32.372;2023-02-28T12:18:24;34.77;;;23.30;;
12896;SDS011;6516;35.028;32.372;2023-02-28T12:21:10;32.00;;;23.13;;
12896;SDS011;6516;35.028;32.372;2023-02-28T12:26:45;28.48;;;21.90;;
12896;SDS011;6516;35.028;32.372;2023-02-28T12:29:17;29.08;;;22.05;;
12896;SDS011;6516;35.028;32.372;2023-02-28T12:31:51;29.97;;;22.97;;
12896;SDS011;6516;35.028;32.372;2023-02-28T12:34:27;35.83;;;22.33;;
12896;SDS011;6516;35.028;32.372;2023-02-28T12:37:01;33.35;;;22.27;;
12896;SDS011;6516;35.028;32.372;2023-02-28T12:39:36;30.73;;;21.85;;
12896;SDS011;6516;35.028;32.372;2023-02-28T12:42:10;28.00;;;21.58;;
12896;SDS011;6516;35.028;32.372;2023-02-28T12:44:48;36.80;;;21.50;;
12896;SDS011;6516;35.028;32.372;2023-02-28T12:47:20;35.05;;;20.02;;
12896;SDS011;6516;35.028;32.372;2023-02-28T12:49:49;28.20;;;19.60;;
12896;SDS011;6516;35.028;32.372;2023-02-28T12:52:22;28.77;;;20.92;;
12896;SDS011;6516;35.028;32.372;2023-02-28T12:54:59;28.05;;;21.42;;
12896;SDS011;6516;35.028;32.372;2023-02-28T12:57:34;25.53;;;20.60;;
12896;SDS011;6516;35.028;32.372;2023-02-28T13:00:12;32.42;;;24.27;;
12896;SDS011;6516;35.028;32.372;2023-02-28T13:02:52;33.55;;;24.63;;
12896;SDS011;6516;35.028;32.372;2023-02-28T13:06:18;29.75;;;22.77;;
12896;SDS011;6516;35.028;32.372;2023-02-28T13:09:11;29.95;;;22.70;;
12896;SDS011;6516;35.028;32.372;2023-02-28T13:11:42;32.07;;;22.97;;
12896;SDS011;6516;35.028;32.372;2023-02-28T13:14:25;31.02;;;24.25;;
12896;SDS011;6516;35.028;32.372;2023-02-28T13:17:09;38.17;;;25.38;;
12896;SDS011;6516;35.028;32.372;2023-02-28T13:19:40;35.75;;;26.20;;
12896;SDS011;6516;35.028;32.372;2023-02-28T13:22:17;35.70;;;25.35;;
12896;SDS011;6516;35.028;32.372;2023-02-28T13:24:48;42.27;;;27.93;;
12896;SDS011;6516;35.028;32.372;2023-02-28T13:27:22;38.47;;;26.38;;
12896;SDS011;6516;35.028;32.372;2023-02-28T13:33:28;37.20;;;26.98;;
12896;SDS011;6516;35.028;32.372;2023-02-28T13:36:08;35.40;;;26.35;;
12896;SDS011;6516;35.028;32.372;2023-02-28T13:38:54;34.73;;;25.93;;
12896;SDS011;6516;35.028;32.372;2023-02-28T13:41:42;33.10;;;25.33;;
12896;SDS011;6516;35.028;32.372;2023-02-28T13:44:12;38.75;;;25.25;;
12896;SDS011;6516;35.028;32.372;2023-02-28T13:49:52;38.20;;;27.27;;
12896;SDS011;6516;35.028;32.372;2023-02-28T13:52:21;37.80;;;27.47;;
12896;SDS011;6516;35.028;32.372;2023-02-28T13:54:58;37.92;;;27.55;;
12896;SDS011;6516;35.028;32.372;2023-02-28T13:57:56;38.58;;;28.65;;
12896;SDS011;6516;35.028;32.372;2023-02-28T14:00:43;36.63;;;26.77;;
12896;SDS011;6516;35.028;32.372;2023-02-28T14:03:36;35.40;;;27.60;;
12896;SDS011;6516;35.028;32.372;2023-02-28T14:06:24;31.97;;;25.37;;
12896;SDS011;6516;35.028;32.372;2023-02-28T14:08:56;35.28;;;26.95;;
12896;SDS011;6516;35.028;32.372;2023-02-28T14:11:32;44.85;;;29.58;;
12896;SDS011;6516;35.028;32.372;2023-02-28T14:14:02;42.60;;;27.45;;
12896;SDS011;6516;35.028;32.372;2023-02-28T14:16:38;33.50;;;26.85;;
12896;SDS011;6516;35.028;32.372;2023-02-28T14:19:11;32.60;;;23.00;;
12896;SDS011;6516;35.028;32.372;2023-02-28T14:21:50;35.92;;;26.02;;
12896;SDS011;6516;35.028;32.372;2023-02-28T14:24:34;36.00;;;27.52;;
12896;SDS011;6516;35.028;32.372;2023-02-28T14:27:31;36.65;;;28.25;;
12896;SDS011;6516;35.028;32.372;2023-02-28T14:30:15;34.40;;;27.48;;
12896;SDS011;6516;35.028;32.372;2023-02-28T14:33:14;40.07;;;27.27;;
12896;SDS011;6516;35.028;32.372;2023-02-28T14:36:04;43.38;;;29.73;;
12896;SDS011;6516;35.028;32.372;2023-02-28T14:38:42;43.60;;;30.33;;
12896;SDS011;6516;35.028;32.372;2023-02-28T14:41:18;37.42;;;30.80;;
12896;SDS011;6516;35.028;32.372;2023-02-28T14:43:51;42.20;;;31.08;;
12896;SDS011;6516;35.028;32.372;2023-02-28T14:46:22;42.67;;;30.63;;
12896;SDS011;6516;35.028;32.372;2023-02-28T14:49:03;37.90;;;26.02;;
12896;SDS011;6516;35.028;32.372;2023-02-28T14:51:32;32.53;;;21.08;;
12896;SDS011;6516;35.028;32.372;2023-02-28T14:54:02;26.35;;;16.80;;
12896;SDS011;6516;35.028;32.372;2023-02-28T14:56:33;26.73;;;15.60;;
12896;SDS011;6516;35.028;32.372;2023-02-28T14:59:04;25.73;;;15.10;;
12896;SDS011;6516;35.028;32.372;2023-02-28T15:01:52;27.85;;;14.32;;
12896;SDS011;6516;35.028;32.372;2023-02-28T15:04:51;24.08;;;14.15;;
12896;SDS011;6516;35.028;32.372;2023-02-28T15:07:22;27.45;;;14.10;;
12896;SDS011;6516;35.028;32.372;2023-02-28T15:12:51;23.70;;;13.27;;
12896;SDS011;6516;35.028;32.372;2023-02-28T15:15:21;23.15;;;14.48;;
12896;SDS011;6516;35.028;32.372;2023-02-28T15:17:53;22.92;;;13.85;;
12896;SDS011;6516;35.028;32.372;2023-02-28T15:20:24;23.25;;;13.68;;